Time;durP1;ratioP1;P1;durP2;ratioP2;P2;SDS_P1;SDS_P2;PMS_P1;PMS_P2;Temp;Humidity;BMP_temperature;BMP_pressure;BME280_temperature;BME280_humidity;BME280_pressure;Samples;Min_cycle;Max_cycle;Signal;HPM_P1;HPM_P2
2023/05/12 00:01:45;;;;;;;8.50;4.00;;;;;;;11.56;57.03;98660.81;104818;1264;98859;-68
2023/05/12 00:04:12;;;;;;;7.70;4.10;;;;;;;11.54;57.15;98661.88;104580;1271;98037;-68
2023/05/12 00:06:39;;;;;;;5.80;4.00;;;;;;;11.48;57.34;98662.33;104830;1262;98467;-68
2023/05/12 00:09:06;;;;;;;10.10;4.50;;;;;;;11.43;57.59;98662.23;104483;1264;98609;-69
2023/05/12 00:11:33;;;;;;;4.50;3.00;;;;;;;11.36;57.97;98656.33;104780;1262;99758;-66
2023/05/12 00:14:01;;;;;;;7.30;4.30;;;;;;;11.28;58.19;98658.46;104296;1276;97978;-66
2023/05/12 00:16:28;;;;;;;8.00;4.20;;;;;;;11.24;58.15;98663.52;104585;1264;98046;-70
2023/05/12 00:18:55;;;;;;;9.60;4.10;;;;;;;11.19;58.23;98662.60;104671;1263;98043;-67
2023/05/12 00:21:22;;;;;;;6.30;4.10;;;;;;;11.14;58.43;98663.69;104601;1263;97934;-68
2023/05/12 00:23:49;;;;;;;6.10;4.50;;;;;;;11.08;58.88;98665.59;104789;1262;97941;-67
2023/05/12 00:26:16;;;;;;;8.50;4.40;;;;;;;11.05;58.66;98666.49;104835;1264;98527;-66
2023/05/12 00:28:44;;;;;;;6.00;4.20;;;;;;;11.02;59.06;98668.29;104849;1262;97952;-67
2023/05/12 00:31:11;;;;;;;8.20;4.70;;;;;;;11.01;58.80;98663.63;104585;1262;97934;-68
2023/05/12 00:33:38;;;;;;;8.40;4.10;;;;;;;11.00;58.82;98665.86;104710;1262;98441;-69
2023/05/12 00:36:06;;;;;;;5.40;3.50;;;;;;;10.99;58.88;98659.60;105157;1260;98021;-68
2023/05/12 00:38:33;;;;;;;7.90;4.00;;;;;;;10.95;59.08;98661.22;104776;1262;99318;-69
2023/05/12 00:41:01;;;;;;;7.40;4.00;;;;;;;10.93;58.85;98662.38;104794;1260;97996;-70
2023/05/12 00:43:28;;;;;;;7.60;4.00;;;;;;;10.91;58.87;98665.28;104577;1262;98020;-67
2023/05/12 00:45:55;;;;;;;5.00;3.70;;;;;;;10.89;59.08;98660.95;104716;1260;97953;-69
2023/05/12 00:48:23;;;;;;;6.30;4.20;;;;;;;10.85;59.27;98663.58;104560;1261;98042;-70
2023/05/12 00:50:50;;;;;;;7.90;3.90;;;;;;;10.82;59.14;98664.05;104802;1262;99215;-67
2023/05/12 00:53:17;;;;;;;6.20;3.40;;;;;;;10.80;59.36;98661.27;104794;1258;97946;-67
2023/05/12 00:55:45;;;;;;;6.10;3.90;;;;;;;10.74;59.59;98664.42;104515;1264;97962;-67
2023/05/12 00:58:12;;;;;;;6.50;3.80;;;;;;;10.70;59.43;98659.58;104573;1262;99224;-66
2023/05/12 01:00:39;;;;;;;6.90;3.70;;;;;;;10.69;59.72;98662.27;104701;1265;97929;-66
2023/05/12 01:03:07;;;;;;;6.30;3.40;;;;;;;10.68;59.50;98665.84;104560;1264;97957;-69
2023/05/12 01:06:13;;;;;;;10.90;4.20;;;;;;;10.64;59.64;98671.91;104860;1263;99225;-68
2023/05/12 01:08:41;;;;;;;8.50;4.20;;;;;;;10.57;59.71;98673.69;104670;1264;112376;-67
2023/05/12 01:11:08;;;;;;;7.30;3.90;;;;;;;10.53;59.90;98670.14;104741;1266;99169;-69
2023/05/12 01:13:38;;;;;;;9.20;4.50;;;;;;;10.50;60.05;98672.92;104753;1264;97945;-69
2023/05/12 01:16:08;;;;;;;6.10;4.00;;;;;;;10.46;60.28;98673.13;104566;1278;97990;-68
2023/05/12 01:18:38;;;;;;;8.00;4.40;;;;;;;10.45;60.27;98675.27;104542;1263;97942;-66
2023/05/12 01:21:05;;;;;;;9.20;4.50;;;;;;;10.43;60.46;98673.02;104598;1264;112321;-68
2023/05/12 01:23:41;;;;;;;11.30;4.70;;;;;;;10.42;60.28;98674.46;104673;1259;99442;-65
2023/05/12 01:26:09;;;;;;;6.60;4.00;;;;;;;10.38;60.43;98674.89;104651;1264;108255;-65
2023/05/12 01:28:38;;;;;;;13.40;4.70;;;;;;;10.32;60.66;98671.05;104539;1264;97996;-65
2023/05/12 01:31:06;;;;;;;7.40;4.50;;;;;;;10.27;60.63;98670.05;105100;1274;97843;-65
2023/05/12 01:33:35;;;;;;;8.80;4.30;;;;;;;10.23;60.87;98669.05;104671;1264;112174;-67
2023/05/12 01:36:02;;;;;;;6.20;4.30;;;;;;;10.19;60.99;98668.77;104420;1276;408663;-67
2023/05/12 01:38:29;;;;;;;6.80;4.30;;;;;;;10.12;61.15;98666.46;104521;1264;108765;-65
2023/05/12 01:40:56;;;;;;;7.10;4.80;;;;;;;10.08;61.20;98668.74;104519;1263;99248;-65
2023/05/12 01:43:23;;;;;;;8.90;4.40;;;;;;;10.05;61.34;98667.24;104616;1263;98142;-65
2023/05/12 01:45:50;;;;;;;7.40;4.60;;;;;;;10.03;61.14;98667.06;104463;1265;97932;-66
2023/05/12 01:48:18;;;;;;;8.70;4.60;;;;;;;9.95;61.61;98669.48;104487;1264;98575;-66
2023/05/12 01:50:45;;;;;;;9.30;4.70;;;;;;;9.90;61.90;98671.69;104725;1260;99213;-66
2023/05/12 01:53:11;;;;;;;6.10;4.40;;;;;;;9.82;62.03;98672.63;104703;1264;97835;-65
2023/05/12 01:55:39;;;;;;;6.70;4.00;;;;;;;9.78;62.30;98677.41;104662;1263;97929;-65
2023/05/12 01:58:06;;;;;;;8.80;5.40;;;;;;;9.74;62.29;98676.53;104745;1266;97943;-67
2023/05/12 02:00:33;;;;;;;8.60;4.50;;;;;;;9.68;62.67;98679.94;104483;1262;108358;-67
2023/05/12 02:03:01;;;;;;;9.00;5.20;;;;;;;9.62;62.55;98677.00;104668;1260;98292;-66
2023/05/12 02:05:28;;;;;;;7.20;4.50;;;;;;;9.59;62.67;98676.20;104701;1263;97916;-66
2023/05/12 02:07:55;;;;;;;6.10;4.10;;;;;;;9.53;62.83;98677.47;104630;1263;99241;-66
2023/05/12 02:10:22;;;;;;;7.30;5.00;;;;;;;9.50;63.29;98677.80;104566;1264;98417;-68
2023/05/12 02:12:49;;;;;;;8.00;4.50;;;;;;;9.45;63.63;98677.64;104637;1260;97938;-67
2023/05/12 02:15:16;;;;;;;7.40;5.00;;;;;;;9.38;63.72;98675.58;104535;1264;99207;-66
2023/05/12 02:17:43;;;;;;;8.90;4.40;;;;;;;9.31;64.05;98672.60;104706;1264;98344;-67
2023/05/12 02:20:11;;;;;;;12.90;5.10;;;;;;;9.25;63.72;98675.02;104528;1264;99241;-69
2023/05/12 02:22:38;;;;;;;8.00;4.50;;;;;;;9.22;63.88;98679.62;104608;1265;98382;-66
2023/05/12 02:25:06;;;;;;;8.20;5.80;;;;;;;9.20;64.29;98676.65;104550;1264;98053;-73
2023/05/12 02:27:33;;;;;;;7.90;4.70;;;;;;;9.14;64.37;98675.13;105181;1263;97938;-69
2023/05/12 02:30:00;;;;;;;7.20;4.20;;;;;;;9.14;64.15;98680.39;104549;1263;97938;-70
2023/05/12 02:32:27;;;;;;;7.90;4.10;;;;;;;9.12;64.51;98680.03;104752;1264;98466;-65
2023/05/12 02:34:55;;;;;;;9.40;5.70;;;;;;;9.08;64.62;98681.86;104740;1263;108291;-68
2023/05/12 02:37:22;;;;;;;7.30;4.70;;;;;;;9.03;64.54;98682.84;104688;1264;99189;-70
2023/05/12 02:39:49;;;;;;;7.90;4.80;;;;;;;8.98;65.17;98680.63;104592;1263;97970;-70
2023/05/12 02:42:16;;;;;;;8.30;4.80;;;;;;;8.95;65.07;98679.16;104600;1264;98027;-68
2023/05/12 02:44:43;;;;;;;8.80;5.10;;;;;;;8.90;65.41;98678.92;104495;1264;97936;-70
2023/05/12 02:47:10;;;;;;;7.80;4.50;;;;;;;8.87;65.46;98680.83;104629;1265;98018;-68
2023/05/12 02:49:37;;;;;;;8.50;4.60;;;;;;;8.80;65.85;98680.14;104577;1263;98010;-68
2023/05/12 02:52:05;;;;;;;9.50;4.70;;;;;;;8.74;65.61;98680.13;104634;1265;98714;-67
2023/05/12 02:54:32;;;;;;;8.60;4.70;;;;;;;8.72;66.09;98675.22;104721;1274;98383;-68
2023/05/12 02:57:04;;;;;;;8.40;5.00;;;;;;;8.68;66.09;98678.48;104668;1265;97998;-68
2023/05/12 02:59:31;;;;;;;9.30;5.20;;;;;;;8.64;66.28;98679.86;104437;1265;108718;-68
2023/05/12 03:01:58;;;;;;;8.40;4.70;;;;;;;8.61;66.35;98678.78;104492;1263;97931;-67
2023/05/12 03:04:25;;;;;;;8.60;5.20;;;;;;;8.59;66.52;98676.24;104583;1259;98039;-68
2023/05/12 03:06:52;;;;;;;8.40;3.90;;;;;;;8.59;66.47;98674.77;104557;1263;97922;-67
2023/05/12 03:09:19;;;;;;;8.00;5.00;;;;;;;8.57;67.01;98676.77;104467;1264;99207;-67
2023/05/12 03:11:46;;;;;;;7.80;5.20;;;;;;;8.52;66.93;98678.35;104535;1275;97971;-66
2023/05/12 03:14:14;;;;;;;7.90;5.30;;;;;;;8.50;66.87;98674.02;104673;1266;97970;-67
2023/05/12 03:16:41;;;;;;;8.10;4.70;;;;;;;8.48;67.07;98677.06;104479;1259;97963;-67
2023/05/12 03:19:08;;;;;;;9.30;5.30;;;;;;;8.47;67.19;98677.02;104677;1264;97938;-67
2023/05/12 03:21:36;;;;;;;6.80;4.70;;;;;;;8.45;67.34;98677.00;104667;1265;97947;-68
2023/05/12 03:24:03;;;;;;;7.80;4.60;;;;;;;8.40;67.66;98680.36;104545;1265;98466;-67
2023/05/12 03:26:30;;;;;;;7.40;4.20;;;;;;;8.37;67.62;98681.17;105835;1263;97987;-67
2023/05/12 03:28:57;;;;;;;9.40;5.40;;;;;;;8.36;68.11;98682.02;104682;1259;97951;-67
2023/05/12 03:31:24;;;;;;;8.60;4.90;;;;;;;8.36;68.09;98684.31;104630;1276;99266;-67
2023/05/12 03:33:51;;;;;;;9.20;4.90;;;;;;;8.36;67.83;98683.97;104608;1259;97948;-67
2023/05/12 03:36:18;;;;;;;8.40;5.10;;;;;;;8.37;67.56;98681.55;104635;1259;98008;-66
2023/05/12 03:38:45;;;;;;;7.80;4.60;;;;;;;8.41;67.72;98687.06;104569;1263;98002;-66
2023/05/12 03:41:12;;;;;;;11.40;4.70;;;;;;;8.40;68.23;98693.02;104427;1260;97948;-66
2023/05/12 03:43:39;;;;;;;10.10;4.80;;;;;;;8.42;67.92;98689.28;104583;1263;98044;-67
2023/05/12 03:46:07;;;;;;;10.00;5.50;;;;;;;8.48;67.55;98687.66;104488;1264;98434;-67
2023/05/12 03:48:34;;;;;;;9.40;5.10;;;;;;;8.55;67.57;98685.38;104538;1266;97940;-68
2023/05/12 03:51:01;;;;;;;10.90;5.00;;;;;;;8.59;67.57;98687.02;104489;1265;99222;-69
2023/05/12 03:53:28;;;;;;;5.70;3.60;;;;;;;8.64;67.32;98685.94;104768;1265;99327;-68
2023/05/12 03:55:55;;;;;;;8.60;5.60;;;;;;;8.70;67.51;98685.96;104661;1264;108701;-67
2023/05/12 03:58:23;;;;;;;8.70;5.40;;;;;;;8.76;67.48;98689.73;104496;1264;98819;-67
2023/05/12 04:00:50;;;;;;;11.00;5.60;;;;;;;8.84;67.17;98694.94;104608;1259;97913;-67
2023/05/12 04:03:17;;;;;;;9.70;5.30;;;;;;;8.89;66.74;98694.79;104524;1266;99225;-69
2023/05/12 04:05:44;;;;;;;10.30;5.30;;;;;;;8.94;66.68;98697.98;104601;1265;99247;-69
2023/05/12 04:08:11;;;;;;;8.50;5.30;;;;;;;8.98;66.59;98697.42;104547;1265;97990;-68
2023/05/12 04:10:40;;;;;;;6.90;4.40;;;;;;;9.05;66.35;98699.20;104672;1265;97976;-67
2023/05/12 04:13:07;;;;;;;8.10;5.00;;;;;;;9.09;66.36;98700.36;104747;1263;97934;-66
2023/05/12 04:15:34;;;;;;;10.30;5.70;;;;;;;9.11;66.28;98700.13;104717;1265;97919;-68
2023/05/12 04:18:02;;;;;;;10.90;5.30;;;;;;;9.11;66.18;98698.69;104531;1266;98059;-68
2023/05/12 04:20:30;;;;;;;9.10;5.00;;;;;;;9.16;66.17;98700.52;104575;1264;108581;-69
2023/05/12 04:22:57;;;;;;;8.60;5.20;;;;;;;9.20;66.00;98700.17;104583;1266;97936;-69
2023/05/12 04:25:25;;;;;;;7.00;4.80;;;;;;;9.25;65.78;98701.81;104511;1266;97925;-67
2023/05/12 04:27:52;;;;;;;6.20;4.00;;;;;;;9.27;65.70;98699.76;104583;1264;111760;-66
2023/05/12 04:30:20;;;;;;;8.60;4.70;;;;;;;9.29;65.62;98701.15;104580;1265;99241;-66
2023/05/12 04:32:48;;;;;;;6.70;4.70;;;;;;;9.38;65.60;98699.70;104637;1273;107192;-66
2023/05/12 04:35:15;;;;;;;7.60;3.90;;;;;;;9.46;65.17;98701.02;104717;1263;98049;-66
2023/05/12 04:37:42;;;;;;;6.20;4.10;;;;;;;9.58;64.93;98703.91;104546;1260;98018;-66
2023/05/12 04:40:09;;;;;;;9.30;4.80;;;;;;;9.64;64.76;98704.64;104613;1265;97983;-66
2023/05/12 04:42:36;;;;;;;7.00;4.10;;;;;;;9.70;64.65;98707.31;104960;1266;98043;-67
2023/05/12 04:45:04;;;;;;;8.10;5.00;;;;;;;9.76;64.46;98705.70;104638;1265;97958;-66
2023/05/12 04:47:32;;;;;;;4.90;3.20;;;;;;;9.84;64.43;98708.70;104568;1260;98040;-68
2023/05/12 04:49:59;;;;;;;5.10;3.20;;;;;;;9.93;64.06;98708.39;104635;1263;97982;-67
2023/05/12 04:52:26;;;;;;;8.30;5.40;;;;;;;9.92;63.82;98707.54;104495;1264;99114;-66
2023/05/12 04:54:53;;;;;;;8.00;4.70;;;;;;;10.01;63.74;98709.44;104703;1274;97948;-66
2023/05/12 04:57:20;;;;;;;7.70;4.90;;;;;;;10.10;63.46;98705.62;104646;1259;98025;-67
2023/05/12 04:59:47;;;;;;;5.50;4.00;;;;;;;10.20;63.25;98706.91;104613;1273;97964;-67
2023/05/12 05:02:15;;;;;;;6.30;4.10;;;;;;;10.26;62.99;98703.99;104588;1265;98033;-66
2023/05/12 05:04:42;;;;;;;7.30;4.60;;;;;;;10.26;62.95;98709.89;104630;1259;98434;-71
2023/05/12 05:07:09;;;;;;;7.30;4.60;;;;;;;10.35;63.03;98709.73;104493;1265;97977;-71
2023/05/12 05:09:36;;;;;;;6.40;4.40;;;;;;;10.50;62.77;98710.89;104495;1264;99273;-69
2023/05/12 05:12:05;;;;;;;6.10;3.50;;;;;;;10.63;62.53;98710.20;104721;1259;98041;-70
2023/05/12 05:14:33;;;;;;;8.10;4.50;;;;;;;10.71;62.07;98713.39;104574;1268;111175;-68
2023/05/12 05:17:00;;;;;;;7.00;5.00;;;;;;;10.80;62.30;98714.98;104600;1264;98884;-70
2023/05/12 05:19:28;;;;;;;8.20;4.70;;;;;;;10.94;61.90;98715.77;104538;1263;98045;-67
2023/05/12 05:22:15;;;;;;;7.30;4.50;;;;;;;11.04;61.09;98713.52;104585;1264;97947;-67
2023/05/12 05:24:42;;;;;;;6.60;3.60;;;;;;;11.06;61.10;98714.37;104720;1260;98534;-68
2023/05/12 05:27:09;;;;;;;6.40;3.00;;;;;;;11.06;60.77;98714.08;104518;1275;97916;-64
2023/05/12 05:29:37;;;;;;;5.90;4.00;;;;;;;11.06;60.80;98711.24;104742;1260;99222;-67
2023/05/12 05:32:04;;;;;;;11.80;4.10;;;;;;;11.07;60.82;98711.24;104634;1270;98926;-67
2023/05/12 05:34:31;;;;;;;6.90;3.80;;;;;;;11.09;60.88;98713.91;104664;1273;98033;-66
2023/05/12 05:36:58;;;;;;;10.10;4.30;;;;;;;11.16;60.57;98712.55;104681;1259;98047;-67
2023/05/12 05:39:29;;;;;;;5.20;3.20;;;;;;;11.16;60.58;98717.55;104630;1266;97941;-67
2023/05/12 05:41:57;;;;;;;6.00;3.40;;;;;;;11.20;60.58;98716.79;104458;1265;98707;-67
2023/05/12 05:44:24;;;;;;;7.20;4.50;;;;;;;11.29;60.52;98719.89;104625;1262;108702;-65
2023/05/12 05:46:51;;;;;;;5.50;3.60;;;;;;;11.41;60.16;98718.74;104481;1267;97970;-67
2023/05/12 05:49:19;;;;;;;6.20;3.80;;;;;;;11.53;59.63;98713.35;104522;1265;97970;-67
2023/05/12 05:51:46;;;;;;;6.80;3.50;;;;;;;11.57;59.91;98717.55;104784;1263;97930;-67
2023/05/12 05:54:13;;;;;;;5.70;4.00;;;;;;;11.66;59.63;98720.23;104686;1259;98631;-67
2023/05/12 05:56:40;;;;;;;6.30;3.40;;;;;;;11.76;59.50;98721.24;104702;1265;99531;-67
2023/05/12 05:59:08;;;;;;;8.70;4.40;;;;;;;11.86;58.83;98723.45;104700;1275;97938;-67
2023/05/12 06:01:35;;;;;;;9.00;4.20;;;;;;;11.97;58.82;98722.44;104586;1263;97942;-68
2023/05/12 06:04:03;;;;;;;6.30;4.00;;;;;;;12.18;58.79;98723.90;104668;1264;98009;-67
2023/05/12 06:06:30;;;;;;;10.60;4.10;;;;;;;12.42;58.10;98727.23;104597;1259;97978;-67
2023/05/12 06:08:57;;;;;;;7.00;3.90;;;;;;;12.61;57.74;98723.88;104695;1260;99119;-67
2023/05/12 06:11:24;;;;;;;6.70;3.90;;;;;;;12.66;57.20;98723.23;104583;1266;97946;-68
2023/05/12 06:13:52;;;;;;;7.40;3.70;;;;;;;12.80;56.93;98725.08;104619;1265;98016;-67
2023/05/12 06:16:19;;;;;;;4.60;3.20;;;;;;;12.80;56.37;98724.52;104600;1273;98014;-67
2023/05/12 06:18:46;;;;;;;10.10;3.10;;;;;;;12.83;56.30;98726.55;104506;1274;97911;-67
2023/05/12 06:21:13;;;;;;;4.70;3.20;;;;;;;12.91;56.15;98728.30;104494;1259;98129;-67
2023/05/12 06:23:40;;;;;;;4.60;3.10;;;;;;;13.00;55.89;98726.24;104522;1265;99228;-67
2023/05/12 06:26:08;;;;;;;14.40;4.10;;;;;;;13.11;55.40;98728.67;104466;1266;99306;-68
2023/05/12 06:28:35;;;;;;;6.40;2.90;;;;;;;13.18;55.39;98729.73;104578;1263;99222;-67
2023/05/12 06:31:07;;;;;;;7.30;3.60;;;;;;;13.28;55.24;98729.68;104533;1260;98011;-71
2023/05/12 06:33:34;;;;;;;7.00;3.80;;;;;;;13.50;55.35;98725.90;104658;1264;108118;-68
2023/05/12 06:36:01;;;;;;;5.20;2.60;;;;;;;13.78;55.00;98726.69;104694;1265;99198;-68
2023/05/12 06:38:28;;;;;;;5.40;3.90;;;;;;;14.00;53.54;98725.48;104662;1273;97963;-68
2023/05/12 06:40:55;;;;;;;5.10;3.20;;;;;;;14.13;54.13;98728.25;104507;1262;98044;-69
2023/05/12 06:43:22;;;;;;;3.80;2.70;;;;;;;14.38;53.82;98726.94;104755;1275;98056;-67
2023/05/12 06:45:50;;;;;;;8.30;3.70;;;;;;;14.55;52.84;98723.54;104622;1268;99135;-68
2023/05/12 06:48:17;;;;;;;7.20;3.30;;;;;;;14.73;53.06;98729.15;104692;1260;99113;-68
2023/05/12 06:50:44;;;;;;;5.90;3.50;;;;;;;14.92;51.96;98721.38;104638;1273;98017;-68
2023/05/12 06:53:11;;;;;;;7.50;3.70;;;;;;;14.95;51.96;98721.20;104688;1264;99248;-68
2023/05/12 06:55:39;;;;;;;5.20;3.50;;;;;;;15.02;50.94;98722.40;104697;1263;99048;-69
2023/05/12 06:58:06;;;;;;;5.90;3.80;;;;;;;15.13;51.66;98723.90;104706;1265;98894;-69
2023/05/12 07:00:33;;;;;;;5.90;3.00;;;;;;;15.33;50.82;98722.95;104585;1263;98674;-69
2023/05/12 07:03:01;;;;;;;5.80;3.50;;;;;;;15.40;50.11;98722.58;104655;1264;97858;-67
2023/05/12 07:05:28;;;;;;;7.90;3.10;;;;;;;15.41;49.43;98724.41;104608;1263;99140;-68
2023/05/12 07:07:55;;;;;;;5.10;3.10;;;;;;;15.48;49.85;98717.60;104756;1272;98043;-67
2023/05/12 07:10:22;;;;;;;6.10;3.20;;;;;;;15.66;49.13;98718.17;104581;1268;98196;-67
2023/05/12 07:12:49;;;;;;;4.80;3.30;;;;;;;15.85;49.04;98720.72;104707;1275;98607;-68
2023/05/12 07:15:17;;;;;;;4.30;3.10;;;;;;;16.00;48.47;98716.30;104696;1263;98130;-67
2023/05/12 07:17:44;;;;;;;5.70;2.90;;;;;;;16.21;47.85;98721.17;104532;1265;97906;-67
2023/05/12 07:20:12;;;;;;;5.50;3.30;;;;;;;16.50;47.64;98722.87;104629;1274;98009;-66
2023/05/12 07:22:39;;;;;;;4.60;2.30;;;;;;;16.67;46.59;98725.21;104689;1274;97932;-66
2023/05/12 07:25:07;;;;;;;5.00;3.00;;;;;;;16.81;46.28;98724.55;104579;1265;97943;-67
2023/05/12 07:27:34;;;;;;;6.80;3.40;;;;;;;16.93;45.97;98717.28;104378;1268;111255;-67
2023/05/12 07:30:02;;;;;;;9.10;3.30;;;;;;;17.13;46.43;98714.97;104548;1262;99219;-68
2023/05/12 07:32:29;;;;;;;4.60;2.80;;;;;;;17.31;45.17;98718.89;104813;1269;98016;-68
2023/05/12 07:34:56;;;;;;;5.60;3.20;;;;;;;17.31;44.75;98719.44;104679;1263;97988;-69
2023/05/12 07:37:23;;;;;;;5.60;3.10;;;;;;;17.25;44.43;98718.66;104511;1260;97925;-68
2023/05/12 07:39:51;;;;;;;4.70;3.00;;;;;;;17.38;45.01;98722.46;104607;1265;98018;-67
2023/05/12 07:42:18;;;;;;;6.00;3.30;;;;;;;17.63;44.91;98718.20;104483;1265;98353;-67
2023/05/12 07:44:45;;;;;;;8.40;3.90;;;;;;;17.97;44.59;98721.19;104580;1264;99389;-66
2023/05/12 07:47:13;;;;;;;4.90;3.10;;;;;;;18.28;43.63;98723.05;104462;1265;97928;-66
2023/05/12 07:49:40;;;;;;;3.50;2.10;;;;;;;18.34;42.76;98720.96;104670;1276;98532;-65
2023/05/12 07:52:07;;;;;;;4.10;2.70;;;;;;;18.28;43.50;98723.68;104615;1263;97886;-70
2023/05/12 07:54:34;;;;;;;3.70;2.30;;;;;;;18.55;43.25;98722.00;104661;1265;97925;-66
2023/05/12 07:57:01;;;;;;;4.20;2.60;;;;;;;18.91;41.62;98724.11;104539;1260;99378;-66
2023/05/12 07:59:28;;;;;;;8.20;3.00;;;;;;;19.04;41.70;98724.10;104583;1280;97977;-65
2023/05/12 08:01:56;;;;;;;3.50;2.50;;;;;;;19.22;41.84;98721.98;104592;1264;97930;-66
2023/05/12 08:04:23;;;;;;;5.60;3.20;;;;;;;19.37;41.03;98723.71;104584;1261;97928;-65
2023/05/12 08:06:50;;;;;;;5.50;3.00;;;;;;;19.46;41.89;98726.79;104845;1263;98072;-66
2023/05/12 08:09:18;;;;;;;4.20;3.00;;;;;;;19.81;40.58;98730.11;104425;1264;98774;-66
2023/05/12 08:11:49;;;;;;;4.50;2.40;;;;;;;20.00;40.06;98729.34;104501;1265;98041;-70
2023/05/12 08:14:18;;;;;;;5.80;2.70;;;;;;;20.05;39.96;98729.36;104564;1274;111315;-65
2023/05/12 08:16:45;;;;;;;5.00;2.80;;;;;;;20.26;39.26;98728.21;104724;1274;97916;-68
2023/05/12 08:19:12;;;;;;;5.00;3.00;;;;;;;20.10;39.01;98729.74;104611;1265;97957;-69
2023/05/12 08:21:40;;;;;;;6.00;2.40;;;;;;;20.14;38.86;98735.38;104576;1265;98598;-66
2023/05/12 08:24:08;;;;;;;6.50;2.60;;;;;;;20.35;38.88;98733.98;104479;1265;98003;-67
2023/05/12 08:26:35;;;;;;;3.60;2.40;;;;;;;20.73;38.36;98737.50;104695;1264;97940;-66
2023/05/12 08:29:03;;;;;;;3.70;2.60;;;;;;;20.92;37.30;98739.78;104660;1266;98038;-66
2023/05/12 08:31:31;;;;;;;3.50;2.60;;;;;;;20.80;36.57;98734.86;104559;1261;108594;-66
2023/05/12 08:33:58;;;;;;;5.60;1.90;;;;;;;20.72;36.96;98730.56;104772;1271;98050;-67
2023/05/12 08:36:39;;;;;;;4.10;2.10;;;;;;;20.62;35.71;98737.05;104529;1265;99487;-66
2023/05/12 08:39:09;;;;;;;3.90;2.30;;;;;;;20.62;35.87;98737.13;104433;1268;111339;-65
2023/05/12 08:41:42;;;;;;;5.60;2.40;;;;;;;20.62;36.36;98741.52;104742;1276;99232;-66
2023/05/12 08:44:13;;;;;;;4.90;2.30;;;;;;;20.77;35.65;98743.52;104599;1274;108772;-65
2023/05/12 08:46:42;;;;;;;3.00;1.80;;;;;;;20.87;36.14;98741.70;104582;1273;99318;-65
2023/05/12 08:49:11;;;;;;;5.00;2.20;;;;;;;20.85;35.78;98742.70;104648;1259;97950;-62
2023/05/12 08:51:41;;;;;;;4.20;2.50;;;;;;;20.96;36.10;98737.60;104408;1268;110314;-65
2023/05/12 08:54:09;;;;;;;4.30;2.30;;;;;;;21.16;35.73;98737.80;104641;1276;98131;-66
2023/05/12 08:56:38;;;;;;;4.00;2.40;;;;;;;21.10;35.09;98740.99;104735;1264;108267;-66
2023/05/12 08:59:09;;;;;;;4.20;2.20;;;;;;;21.08;35.28;98737.63;104672;1265;99247;-66
2023/05/12 09:01:37;;;;;;;4.20;2.40;;;;;;;21.10;35.25;98730.57;104766;1263;98005;-65
2023/05/12 09:04:04;;;;;;;4.80;2.20;;;;;;;21.22;35.53;98730.05;104520;1264;110913;-66
2023/05/12 09:06:32;;;;;;;6.30;2.70;;;;;;;21.51;35.34;98724.14;104532;1266;99170;-65
2023/05/12 09:09:00;;;;;;;3.70;2.20;;;;;;;21.60;34.82;98729.15;104667;1264;108512;-67
2023/05/12 09:11:27;;;;;;;2.90;2.20;;;;;;;21.42;35.31;98734.12;104536;1263;98015;-72
2023/05/12 09:14:02;;;;;;;4.50;2.80;;;;;;;21.51;35.03;98731.32;104721;1264;97928;-69
2023/05/12 09:16:32;;;;;;;2.90;2.30;;;;;;;21.92;35.00;98728.03;104488;1260;111723;-67
2023/05/12 09:19:01;;;;;;;4.10;2.20;;;;;;;22.30;34.45;98726.79;104626;1266;99147;-66
2023/05/12 09:21:33;;;;;;;5.70;2.60;;;;;;;22.49;34.11;98731.25;104715;1259;108897;-66
2023/05/12 09:24:05;;;;;;;3.00;2.30;;;;;;;22.60;34.41;98725.48;104731;1265;99202;-66
2023/05/12 09:26:46;;;;;;;4.30;2.60;;;;;;;22.90;34.19;98727.80;104585;1269;98016;-67
2023/05/12 09:29:15;;;;;;;3.60;2.50;;;;;;;23.18;33.72;98726.63;104471;1265;112374;-66
2023/05/12 09:31:58;;;;;;;3.40;2.10;;;;;;;23.44;32.69;98725.39;104634;1274;99290;-69
2023/05/12 09:34:28;;;;;;;4.00;2.40;;;;;;;23.53;32.28;98720.67;104492;1274;107699;-66
2023/05/12 09:37:00;;;;;;;2.30;2.10;;;;;;;23.63;32.11;98722.99;104722;1270;98022;-65
2023/05/12 09:39:27;;;;;;;4.90;2.40;;;;;;;23.28;31.65;98720.08;104421;1268;98771;-66
2023/05/12 09:41:55;;;;;;;3.80;2.30;;;;;;;23.19;32.33;98723.05;104623;1260;112430;-65
2023/05/12 09:44:23;;;;;;;5.40;2.60;;;;;;;23.02;32.65;98716.41;104511;1265;99182;-66
2023/05/12 09:46:51;;;;;;;4.10;2.10;;;;;;;23.06;32.94;98717.67;104761;1272;107399;-65
2023/05/12 09:49:19;;;;;;;2.90;2.30;;;;;;;23.07;32.35;98726.95;104526;1268;98054;-65
2023/05/12 09:52:00;;;;;;;4.20;2.30;;;;;;;23.19;32.07;98721.92;104634;1268;99149;-66
2023/05/12 09:54:32;;;;;;;3.30;2.30;;;;;;;22.94;31.88;98713.36;104564;1263;113412;-65
2023/05/12 09:57:03;;;;;;;4.10;2.10;;;;;;;23.08;32.73;98716.40;104448;1276;98100;-65
2023/05/12 09:59:33;;;;;;;5.80;2.50;;;;;;;23.90;32.90;98709.90;104680;1263;108609;-65
2023/05/12 10:02:03;;;;;;;3.90;2.30;;;;;;;24.63;31.28;98716.30;104813;1272;97941;-64
2023/05/12 10:04:44;;;;;;;3.30;2.10;;;;;;;24.67;29.65;98712.98;104555;1274;97951;-65
2023/05/12 10:07:13;;;;;;;3.80;1.90;;;;;;;24.43;29.56;98708.63;104531;1260;111239;-65
2023/05/12 10:09:43;;;;;;;5.20;2.30;;;;;;;24.26;28.87;98705.41;104856;1261;99145;-64
2023/05/12 10:12:10;;;;;;;5.10;1.90;;;;;;;23.93;29.51;98707.02;104471;1276;107522;-65
2023/05/12 10:14:37;;;;;;;4.30;2.30;;;;;;;23.63;29.75;98708.44;104411;1275;97973;-64
2023/05/12 10:17:05;;;;;;;3.00;2.00;;;;;;;23.14;30.71;98704.83;104812;1260;97958;-64
2023/05/12 10:19:34;;;;;;;6.10;1.90;;;;;;;22.95;29.53;98706.98;104762;1273;112115;-64
2023/05/12 10:22:03;;;;;;;3.30;1.90;;;;;;;22.76;29.82;98706.14;104847;1264;99606;-64
2023/05/12 10:24:30;;;;;;;2.90;1.80;;;;;;;22.97;30.02;98703.46;104696;1262;108575;-64
2023/05/12 10:27:00;;;;;;;3.80;1.90;;;;;;;23.15;29.88;98708.42;104323;1263;98062;-63
2023/05/12 10:29:33;;;;;;;3.00;2.10;;;;;;;23.22;29.78;98708.66;104499;1266;98772;-66
2023/05/12 10:32:14;;;;;;;4.40;1.80;;;;;;;23.06;29.52;98700.28;104523;1263;111395;-71
2023/05/12 10:34:46;;;;;;;2.90;1.90;;;;;;;22.94;29.15;98705.30;104709;1271;99113;-64
2023/05/12 10:37:13;;;;;;;2.70;1.60;;;;;;;23.14;29.19;98705.80;104857;1271;98010;-64
2023/05/12 10:39:51;;;;;;;5.00;2.10;;;;;;;23.23;29.20;98708.52;104637;1263;99323;-63
2023/05/12 10:42:25;;;;;;;4.00;2.30;;;;;;;23.18;30.16;98702.37;104818;1262;98203;-64
2023/05/12 10:44:54;;;;;;;8.80;2.60;;;;;;;23.07;31.40;98703.88;104529;1281;111290;-64
2023/05/12 10:47:35;;;;;;;7.30;2.60;;;;;;;22.89;31.75;98702.81;104605;1270;97976;-64
2023/05/12 10:50:02;;;;;;;3.20;2.20;;;;;;;22.52;32.19;98702.70;104582;1264;107740;-64
2023/05/12 10:52:29;;;;;;;3.70;2.30;;;;;;;22.33;32.01;98705.11;104492;1263;97918;-66
2023/05/12 10:55:02;;;;;;;3.10;1.90;;;;;;;22.37;31.87;98697.94;104837;1262;99221;-65
2023/05/12 10:57:30;;;;;;;4.30;2.20;;;;;;;22.26;31.23;98707.39;104353;1264;110877;-65
2023/05/12 11:00:04;;;;;;;3.00;1.60;;;;;;;22.18;31.48;98703.69;104597;1267;99508;-65
2023/05/12 11:02:34;;;;;;;2.90;2.00;;;;;;;22.15;31.46;98707.59;104595;1274;108624;-65
2023/05/12 11:05:10;;;;;;;2.80;1.80;;;;;;;22.04;31.81;98700.19;104430;1265;98019;-67
2023/05/12 11:07:39;;;;;;;4.50;2.30;;;;;;;22.06;31.34;98700.84;104423;1271;99129;-64
2023/05/12 11:10:08;;;;;;;2.50;1.40;;;;;;;22.21;31.87;98703.08;104475;1267;111537;-65
2023/05/12 11:12:36;;;;;;;3.20;1.60;;;;;;;22.39;30.72;98700.98;104578;1260;99582;-69
2023/05/12 11:15:06;;;;;;;2.10;1.80;;;;;;;22.24;30.40;98698.37;104523;1265;108707;-65
2023/05/12 11:17:37;;;;;;;2.70;1.50;;;;;;;22.02;29.99;98710.71;104681;1263;98013;-66
2023/05/12 11:20:06;;;;;;;5.50;1.50;;;;;;;21.74;29.82;98708.55;104613;1261;98144;-64
2023/05/12 11:22:33;;;;;;;3.10;1.70;;;;;;;22.23;30.23;98706.42;104549;1273;112380;-64
2023/05/12 11:25:09;;;;;;;2.60;1.30;;;;;;;22.78;28.03;98700.64;104662;1273;99232;-64
2023/05/12 11:27:41;;;;;;;3.20;1.40;;;;;;;22.86;27.91;98697.05;104689;1265;108280;-64
2023/05/12 11:30:10;;;;;;;3.30;1.50;;;;;;;22.38;29.02;98698.99;104542;1275;98083;-63
2023/05/12 11:32:37;;;;;;;5.60;1.80;;;;;;;21.99;29.76;98703.92;104732;1274;99337;-67